createdAt,value
2023-06-29T00:01:53.456Z,22.22
2023-06-29T00:04:23.131Z,22.13
2023-06-29T00:06:54.296Z,22.10
2023-06-29T00:09:24.850Z,21.88
2023-06-29T00:11:53.666Z,22.00
2023-06-29T00:14:22.499Z,21.96
2023-06-29T00:16:52.058Z,21.88
2023-06-29T00:19:22.231Z,21.88
2023-06-29T00:21:52.528Z,21.95
2023-06-29T00:24:21.458Z,21.95
2023-06-29T00:26:50.458Z,21.93
2023-06-29T00:29:19.906Z,21.88
2023-06-29T00:31:48.828Z,21.84
2023-06-29T00:34:20.566Z,21.78
2023-06-29T00:36:50.558Z,21.73
2023-06-29T00:39:20.877Z,21.64
2023-06-29T00:41:54.914Z,21.52
2023-06-29T00:44:24.443Z,21.42
2023-06-29T00:46:56.156Z,21.40
2023-06-29T00:49:26.573Z,21.33
2023-06-29T00:51:57.322Z,21.28
2023-06-29T00:54:29.039Z,21.19
2023-06-29T00:57:00.251Z,21.05
2023-06-29T00:59:29.061Z,21.21
2023-06-29T01:01:58.436Z,21.22
2023-06-29T01:04:27.592Z,21.20
2023-06-29T01:07:00.452Z,21.16
2023-06-29T01:09:31.313Z,21.09
2023-06-29T01:12:02.185Z,20.98
2023-06-29T01:14:33.403Z,20.44
2023-06-29T01:17:03.734Z,20.76
2023-06-29T01:19:35.206Z,20.74
2023-06-29T01:22:07.548Z,20.73
2023-06-29T01:24:41.272Z,20.68
2023-06-29T01:27:13.970Z,20.56
2023-06-29T01:29:43.738Z,20.50
2023-06-29T01:32:13.075Z,20.47
2023-06-29T01:34:42.130Z,20.44
2023-06-29T01:37:14.374Z,20.47
2023-06-29T01:39:56.842Z,20.38
2023-06-29T01:42:27.454Z,20.46
2023-06-29T01:44:56.824Z,20.44
2023-06-29T01:47:26.985Z,20.38
2023-06-29T01:49:56.010Z,20.34
2023-06-29T01:52:25.300Z,20.28
2023-06-29T01:54:57.434Z,20.32
2023-06-29T01:57:29.470Z,20.27
2023-06-29T01:59:59.546Z,20.24
2023-06-29T02:02:28.549Z,20.15
2023-06-29T02:05:01.104Z,20.14
2023-06-29T02:07:29.964Z,20.14
2023-06-29T02:10:00.456Z,20.20
2023-06-29T02:12:29.323Z,20.16
2023-06-29T02:14:58.265Z,20.10
2023-06-29T02:17:29.123Z,20.08
2023-06-29T02:19:58.024Z,20.02
2023-06-29T02:22:26.820Z,19.90
2023-06-29T02:24:55.703Z,19.91
2023-06-29T02:27:26.067Z,19.91
2023-06-29T02:29:54.973Z,19.90
2023-06-29T02:32:25.745Z,19.84
2023-06-29T02:34:54.728Z,19.78
2023-06-29T02:37:24.454Z,19.23
2023-06-29T02:39:53.582Z,19.71
2023-06-29T02:42:22.400Z,19.67
2023-06-29T02:44:52.750Z,19.66
2023-06-29T02:47:21.636Z,19.57
2023-06-29T02:49:50.675Z,19.55
2023-06-29T02:52:22.038Z,19.55
2023-06-29T02:54:51.982Z,19.55
2023-06-29T02:57:20.957Z,19.35
2023-06-29T02:59:49.867Z,19.45
2023-06-29T03:02:20.241Z,19.42
2023-06-29T03:04:49.102Z,19.39
2023-06-29T03:07:18.074Z,18.92
2023-06-29T03:09:49.023Z,19.27
2023-06-29T03:12:17.837Z,19.20
2023-06-29T03:14:46.653Z,19.16
2023-06-29T03:17:15.945Z,19.16
2023-06-29T03:19:46.368Z,19.14
2023-06-29T03:22:15.276Z,19.13
2023-06-29T03:24:44.061Z,19.10
2023-06-29T03:27:13.373Z,19.08
2023-06-29T03:29:42.140Z,19.02
2023-06-29T03:32:11.513Z,18.84
2023-06-29T03:34:40.326Z,18.92
2023-06-29T03:37:11.506Z,18.99
2023-06-29T03:39:40.388Z,18.96
2023-06-29T03:42:09.340Z,18.74
2023-06-29T03:44:40.770Z,18.92
2023-06-29T03:47:09.805Z,19.00
2023-06-29T03:49:38.553Z,18.93
2023-06-29T03:52:08.637Z,18.88
2023-06-29T03:54:38.867Z,18.82
2023-06-29T03:57:08.778Z,18.82
2023-06-29T03:59:37.694Z,18.45
2023-06-29T04:02:07.108Z,18.88
2023-06-29T04:04:36.009Z,18.92
2023-06-29T04:07:05.079Z,18.91
2023-06-29T04:09:34.259Z,18.92
2023-06-29T04:12:04.493Z,18.90
2023-06-29T04:14:33.437Z,18.91
2023-06-29T04:17:02.255Z,18.86
2023-06-29T04:19:31.861Z,18.83
2023-06-29T04:22:00.700Z,18.79
2023-06-29T04:24:29.537Z,18.80
2023-06-29T04:26:58.332Z,18.82
2023-06-29T04:29:29.647Z,18.87
2023-06-29T04:31:59.460Z,18.86
2023-06-29T04:34:29.316Z,18.81
2023-06-29T04:36:58.199Z,18.78
2023-06-29T04:39:27.131Z,18.81
2023-06-29T04:42:02.970Z,18.85
2023-06-29T04:44:33.675Z,18.94
2023-06-29T04:47:03.267Z,19.03
2023-06-29T04:49:38.790Z,19.00
2023-06-29T04:52:11.380Z,19.19
2023-06-29T04:54:40.289Z,19.25
2023-06-29T04:57:09.162Z,19.31
2023-06-29T04:59:39.461Z,19.37
2023-06-29T05:02:09.579Z,19.44
2023-06-29T05:04:38.680Z,19.46
2023-06-29T05:07:07.621Z,19.51
2023-06-29T05:09:37.496Z,19.59
2023-06-29T05:12:07.097Z,19.64
2023-06-29T05:14:35.985Z,19.55
2023-06-29T05:17:08.653Z,19.74
2023-06-29T05:19:37.750Z,19.77
2023-06-29T05:22:07.042Z,19.88
2023-06-29T05:24:36.003Z,19.98
2023-06-29T05:27:04.806Z,20.05
2023-06-29T05:29:33.638Z,20.24
2023-06-29T05:32:02.592Z,20.40
2023-06-29T05:34:32.977Z,20.48
2023-06-29T05:37:01.871Z,20.60
2023-06-29T05:39:30.770Z,20.71
2023-06-29T05:41:59.619Z,20.85
2023-06-29T05:44:28.377Z,20.98
2023-06-29T05:46:57.301Z,21.07
2023-06-29T05:49:26.123Z,21.20
2023-06-29T05:51:56.365Z,21.42
2023-06-29T05:54:25.267Z,21.62
2023-06-29T05:56:55.108Z,21.84
2023-06-29T05:59:24.140Z,22.06
2023-06-29T06:01:53.240Z,22.29
2023-06-29T06:04:22.064Z,22.56
2023-06-29T06:06:51.141Z,22.81
2023-06-29T06:09:21.508Z,23.09
2023-06-29T06:11:50.445Z,23.39
2023-06-29T06:14:19.234Z,23.70
2023-06-29T06:16:48.194Z,23.95
2023-06-29T06:19:17.287Z,24.27
2023-06-29T06:21:46.174Z,24.56
2023-06-29T06:24:15.058Z,24.83
2023-06-29T06:26:45.372Z,25.11
2023-06-29T06:29:14.187Z,25.34
2023-06-29T06:31:43.084Z,25.62
2023-06-29T06:34:12.100Z,25.78
2023-06-29T06:36:41.519Z,26.06
2023-06-29T06:39:11.384Z,26.18
2023-06-29T06:41:40.295Z,26.37
2023-06-29T06:44:10.761Z,26.43
2023-06-29T06:46:39.753Z,27.03
2023-06-29T06:49:08.587Z,27.31
2023-06-29T06:51:37.399Z,27.52
2023-06-29T06:54:06.283Z,27.56
2023-06-29T06:56:35.231Z,27.98
2023-06-29T06:59:04.219Z,28.20
2023-06-29T07:01:35.054Z,28.54
2023-06-29T07:04:04.629Z,28.66
2023-06-29T07:06:35.073Z,28.67
2023-06-29T07:09:05.117Z,28.88
2023-06-29T07:11:33.967Z,28.89
2023-06-29T07:14:03.236Z,29.05
2023-06-29T07:16:33.569Z,29.15
2023-06-29T07:21:39.531Z,29.14
2023-06-29T07:24:09.395Z,29.24
2023-06-29T07:26:38.873Z,29.44
2023-06-29T07:29:08.456Z,29.48
2023-06-29T07:31:39.841Z,29.62
2023-06-29T07:34:09.001Z,29.79
2023-06-29T07:36:39.439Z,29.23
2023-06-29T07:39:08.569Z,29.88
2023-06-29T07:41:37.998Z,29.97
2023-06-29T07:44:08.549Z,30.10
2023-06-29T07:46:38.973Z,30.26
2023-06-29T07:49:08.435Z,30.39
2023-06-29T07:51:38.428Z,30.43
2023-06-29T07:54:07.963Z,30.60
2023-06-29T07:59:09.215Z,30.62
2023-06-29T08:01:39.542Z,30.69
2023-06-29T08:04:09.456Z,30.76
2023-06-29T08:06:52.013Z,30.51
2023-06-29T08:09:22.325Z,30.82
2023-06-29T08:11:51.797Z,30.86
2023-06-29T08:14:20.625Z,30.95
2023-06-29T08:16:50.891Z,31.07
2023-06-29T08:19:19.908Z,31.14
2023-06-29T08:21:49.521Z,31.22
2023-06-29T08:24:18.517Z,31.39
2023-06-29T08:26:47.445Z,31.53
2023-06-29T08:29:16.309Z,31.56
2023-06-29T08:31:45.383Z,31.52
2023-06-29T08:34:15.814Z,31.55
2023-06-29T08:36:44.701Z,31.75
2023-06-29T08:39:13.492Z,31.87
2023-06-29T08:41:42.914Z,31.78
2023-06-29T08:44:11.865Z,31.60
2023-06-29T08:46:41.341Z,31.67
2023-06-29T08:49:10.822Z,31.62
2023-06-29T08:51:43.733Z,31.19
2023-06-29T08:54:14.191Z,31.62
2023-06-29T08:56:43.108Z,31.65
2023-06-29T08:59:12.468Z,31.68
2023-06-29T09:01:42.288Z,31.57
2023-06-29T09:04:11.544Z,31.57
2023-06-29T09:06:43.242Z,31.66
2023-06-29T09:09:12.221Z,31.71
2023-06-29T09:11:43.915Z,31.22
2023-06-29T09:14:13.089Z,31.72
2023-06-29T09:16:52.007Z,31.73
2023-06-29T09:19:21.062Z,31.51
2023-06-29T09:21:51.642Z,31.86
2023-06-29T09:24:20.920Z,31.82
2023-06-29T09:26:51.901Z,31.67
2023-06-29T09:29:20.823Z,31.83
2023-06-29T09:31:59.396Z,31.84
2023-06-29T09:34:29.857Z,31.84
2023-06-29T09:37:00.275Z,31.85
2023-06-29T09:39:29.130Z,31.82
2023-06-29T09:41:59.237Z,31.93
2023-06-29T09:44:29.168Z,31.74
2023-06-29T09:49:49.462Z,32.13
2023-06-29T09:52:21.016Z,32.18
2023-06-29T09:54:51.054Z,32.37
2023-06-29T09:57:21.420Z,32.41
2023-06-29T09:59:51.126Z,32.52
2023-06-29T10:02:20.595Z,32.62
2023-06-29T10:04:51.043Z,32.63
2023-06-29T10:07:23.899Z,32.66
2023-06-29T10:09:53.477Z,32.66
2023-06-29T10:12:28.784Z,32.51
2023-06-29T10:15:01.580Z,32.41
2023-06-29T10:17:36.625Z,32.32
2023-06-29T10:20:08.090Z,32.78
2023-06-29T10:22:41.451Z,32.78
2023-06-29T10:25:15.385Z,32.17
2023-06-29T10:27:45.283Z,32.94
2023-06-29T10:30:20.160Z,33.10
2023-06-29T10:32:51.947Z,33.10
2023-06-29T10:35:20.789Z,33.12
2023-06-29T10:37:53.329Z,33.23
2023-06-29T10:40:26.240Z,33.37
2023-06-29T10:42:56.879Z,33.45
2023-06-29T10:45:35.534Z,33.59
2023-06-29T10:48:31.300Z,33.71
2023-06-29T10:51:09.630Z,33.73
2023-06-29T10:53:42.028Z,33.54
2023-06-29T10:56:31.181Z,33.58
2023-06-29T10:59:01.219Z,33.73
2023-06-29T11:01:30.864Z,33.82
2023-06-29T11:04:01.525Z,33.85
2023-06-29T11:06:37.031Z,33.87
2023-06-29T11:09:15.050Z,34.01
2023-06-29T11:11:46.473Z,34.14
2023-06-29T11:14:15.486Z,34.22
2023-06-29T11:16:44.453Z,34.18
2023-06-29T11:19:13.822Z,34.03
2023-06-29T11:21:43.223Z,34.00
2023-06-29T11:24:13.614Z,34.08
2023-06-29T11:26:42.632Z,34.08
2023-06-29T11:29:11.536Z,34.05
2023-06-29T11:31:40.831Z,34.13
2023-06-29T11:34:15.370Z,34.10
2023-06-29T11:39:34.709Z,34.17
2023-06-29T11:42:06.829Z,34.29
2023-06-29T11:44:36.072Z,34.42
2023-06-29T11:47:18.428Z,34.49
2023-06-29T11:49:55.722Z,34.58
2023-06-29T11:52:24.991Z,34.56
2023-06-29T11:54:55.308Z,34.57
2023-06-29T11:57:24.179Z,34.73
2023-06-29T11:59:53.087Z,34.89
2023-06-29T12:02:22.467Z,34.93
2023-06-29T12:04:58.894Z,35.00
2023-06-29T12:07:38.325Z,34.98
2023-06-29T12:10:11.289Z,34.89
2023-06-29T12:12:41.486Z,34.76
2023-06-29T12:15:16.755Z,34.67
2023-06-29T12:20:19.838Z,34.94
2023-06-29T12:22:50.948Z,34.95
2023-06-29T12:25:22.142Z,34.91
2023-06-29T12:27:52.581Z,34.87
2023-06-29T12:30:23.083Z,34.84
2023-06-29T12:32:53.112Z,34.84
2023-06-29T12:35:21.949Z,34.79
2023-06-29T12:37:50.857Z,34.58
2023-06-29T12:40:21.330Z,34.37
2023-06-29T12:42:50.246Z,34.17
2023-06-29T12:45:19.133Z,34.21
2023-06-29T12:47:48.180Z,34.38
2023-06-29T12:50:17.891Z,34.44
2023-06-29T12:52:48.324Z,34.51
2023-06-29T12:55:17.361Z,34.60
2023-06-29T12:57:47.648Z,34.74
2023-06-29T13:00:19.979Z,34.86
2023-06-29T13:02:49.576Z,34.87
2023-06-29T13:05:18.697Z,34.88
2023-06-29T13:07:47.570Z,34.83
2023-06-29T13:10:16.378Z,34.75
2023-06-29T13:12:46.625Z,34.68
2023-06-29T13:15:15.584Z,34.71
2023-06-29T13:17:45.363Z,34.72
2023-06-29T13:20:16.130Z,34.75
2023-06-29T13:22:45.236Z,34.74
2023-06-29T13:25:14.128Z,34.74
2023-06-29T13:27:45.198Z,34.75
2023-06-29T13:30:17.071Z,34.79
2023-06-29T13:32:46.167Z,34.80
2023-06-29T13:35:15.026Z,34.87
2023-06-29T13:37:43.906Z,34.91
2023-06-29T13:40:14.073Z,34.88
2023-06-29T13:42:43.149Z,34.93
2023-06-29T13:45:12.555Z,34.90
2023-06-29T13:47:45.144Z,34.87
2023-06-29T13:50:16.520Z,34.82
2023-06-29T13:52:48.488Z,34.86
2023-06-29T13:55:17.352Z,34.86
2023-06-29T13:57:46.195Z,34.88
2023-06-29T14:00:16.277Z,34.80
2023-06-29T14:02:46.725Z,34.85
2023-06-29T14:05:15.756Z,34.79
2023-06-29T14:07:44.639Z,34.65
2023-06-29T14:10:13.543Z,34.52
2023-06-29T14:12:42.436Z,34.50
2023-06-29T14:15:11.993Z,34.53
2023-06-29T14:17:41.103Z,34.53
2023-06-29T14:20:12.891Z,34.50
2023-06-29T14:22:42.726Z,34.49
2023-06-29T14:25:12.625Z,34.47
2023-06-29T14:27:41.552Z,34.48
2023-06-29T14:30:12.363Z,34.48
2023-06-29T14:32:41.504Z,34.48
2023-06-29T14:35:12.008Z,34.45
2023-06-29T14:37:41.364Z,34.45
2023-06-29T14:40:11.335Z,34.41
2023-06-29T14:42:41.617Z,34.40
2023-06-29T14:45:11.252Z,34.37
2023-06-29T14:47:40.283Z,34.44
2023-06-29T14:50:10.989Z,34.51
2023-06-29T14:52:41.808Z,34.57
2023-06-29T14:55:10.762Z,34.52
2023-06-29T14:57:39.614Z,34.49
2023-06-29T15:00:10.159Z,34.49
2023-06-29T15:02:40.275Z,34.49
2023-06-29T15:05:09.978Z,34.47
2023-06-29T15:07:38.847Z,34.42
2023-06-29T15:10:11.657Z,34.38
2023-06-29T15:12:40.554Z,34.25
2023-06-29T15:15:11.819Z,34.20
2023-06-29T15:17:43.565Z,34.17
2023-06-29T15:20:13.391Z,34.14
2023-06-29T15:22:42.300Z,34.04
2023-06-29T15:25:12.760Z,33.95
2023-06-29T15:27:41.760Z,33.88
2023-06-29T15:30:11.402Z,33.83
2023-06-29T15:32:40.317Z,33.69
2023-06-29T15:35:10.330Z,33.59
2023-06-29T15:37:39.158Z,33.55
2023-06-29T15:40:09.704Z,33.55
2023-06-29T15:42:40.145Z,33.51
2023-06-29T15:45:09.638Z,33.45
2023-06-29T15:47:38.518Z,33.43
2023-06-29T15:50:08.485Z,33.43
2023-06-29T15:52:37.844Z,33.38
2023-06-29T15:55:08.612Z,33.27
2023-06-29T15:57:37.495Z,33.17
2023-06-29T16:00:09.414Z,33.03
2023-06-29T16:02:40.812Z,33.02
2023-06-29T16:05:10.508Z,32.93
2023-06-29T16:07:39.442Z,32.90
2023-06-29T16:10:09.117Z,32.95
2023-06-29T16:12:38.122Z,32.92
2023-06-29T16:15:09.386Z,32.84
2023-06-29T16:17:38.435Z,32.67
2023-06-29T16:20:09.541Z,32.58
2023-06-29T16:22:38.584Z,32.50
2023-06-29T16:25:09.755Z,32.43
2023-06-29T16:27:38.697Z,32.38
2023-06-29T16:30:10.938Z,32.39
2023-06-29T16:32:40.411Z,32.30
2023-06-29T16:35:09.862Z,32.26
2023-06-29T16:37:38.820Z,32.23
2023-06-29T16:40:09.026Z,32.18
2023-06-29T16:42:38.302Z,32.12
2023-06-29T16:45:09.374Z,32.04
2023-06-29T16:47:38.810Z,31.96
2023-06-29T16:50:09.281Z,31.93
2023-06-29T16:52:38.294Z,31.82
2023-06-29T16:55:07.492Z,31.72
2023-06-29T16:57:36.393Z,31.65
2023-06-29T17:00:05.950Z,31.60
2023-06-29T17:02:36.635Z,31.60
2023-06-29T17:05:05.908Z,31.57
2023-06-29T17:07:36.941Z,31.55
2023-06-29T17:10:06.725Z,31.54
2023-06-29T17:12:35.606Z,31.42
2023-06-29T17:15:04.810Z,31.40
2023-06-29T17:17:33.952Z,31.37
2023-06-29T17:20:04.392Z,31.36
2023-06-29T17:22:33.355Z,31.32
2023-06-29T17:25:02.173Z,31.28
2023-06-29T17:27:30.938Z,31.23
2023-06-29T17:29:59.819Z,31.17
2023-06-29T17:32:28.786Z,31.23
2023-06-29T17:34:58.793Z,31.08
2023-06-29T17:37:30.121Z,30.98
2023-06-29T17:39:59.167Z,30.86
2023-06-29T17:42:28.952Z,30.75
2023-06-29T17:44:57.850Z,30.66
2023-06-29T17:47:26.649Z,30.56
2023-06-29T17:49:55.531Z,30.45
2023-06-29T17:52:24.286Z,30.35
2023-06-29T17:54:54.889Z,30.27
2023-06-29T17:57:23.778Z,30.13
2023-06-29T17:59:52.611Z,30.02
2023-06-29T18:02:22.562Z,29.94
2023-06-29T18:04:51.686Z,29.89
2023-06-29T18:07:20.661Z,29.79
2023-06-29T18:09:49.675Z,29.75
2023-06-29T18:12:20.276Z,29.77
2023-06-29T18:14:49.126Z,29.76
2023-06-29T18:17:19.934Z,29.68
2023-06-29T18:19:48.835Z,29.56
2023-06-29T18:22:17.620Z,29.49
2023-06-29T18:24:46.477Z,29.39
2023-06-29T18:27:15.346Z,29.33
2023-06-29T18:29:45.854Z,29.32
2023-06-29T18:32:14.749Z,29.28
2023-06-29T18:34:43.956Z,29.26
2023-06-29T18:37:12.886Z,29.20
2023-06-29T18:39:41.878Z,29.14
2023-06-29T18:42:11.629Z,29.13
2023-06-29T18:44:41.533Z,29.13
2023-06-29T18:47:15.201Z,29.06
2023-06-29T18:49:52.185Z,28.88
2023-06-29T18:52:22.543Z,29.00
2023-06-29T18:54:53.210Z,28.94
2023-06-29T18:57:22.191Z,28.87
2023-06-29T18:59:51.074Z,28.82
2023-06-29T19:02:21.522Z,28.78
2023-06-29T19:04:50.370Z,28.67
2023-06-29T19:07:19.376Z,28.58
2023-06-29T19:09:48.882Z,28.53
2023-06-29T19:12:17.741Z,28.50
2023-06-29T19:14:46.591Z,28.46
2023-06-29T19:17:15.623Z,28.40
2023-06-29T19:19:45.808Z,28.36
2023-06-29T19:22:14.619Z,28.30
2023-06-29T19:24:43.493Z,28.24
2023-06-29T19:27:12.329Z,28.22
2023-06-29T19:29:41.307Z,28.17
2023-06-29T19:32:11.840Z,28.07
2023-06-29T19:34:41.014Z,27.97
2023-06-29T19:37:12.313Z,27.85
2023-06-29T19:39:42.271Z,27.70
2023-06-29T19:42:11.210Z,27.59
2023-06-29T19:44:40.166Z,27.55
2023-06-29T19:47:09.232Z,27.57
2023-06-29T19:49:38.186Z,27.58
2023-06-29T19:52:07.625Z,27.57
2023-06-29T19:54:37.918Z,27.55
2023-06-29T19:57:08.715Z,27.44
2023-06-29T19:59:37.587Z,27.29
2023-06-29T20:02:07.158Z,27.26
2023-06-29T20:04:36.105Z,27.25
2023-06-29T20:07:05.391Z,27.26
2023-06-29T20:09:34.350Z,27.25
2023-06-29T20:12:04.870Z,27.25
2023-06-29T20:14:34.207Z,27.21
2023-06-29T20:17:03.090Z,27.18
2023-06-29T20:19:33.386Z,27.18
2023-06-29T20:22:02.178Z,27.20
2023-06-29T20:24:31.123Z,27.22
2023-06-29T20:26:59.915Z,27.23
2023-06-29T20:29:30.415Z,27.22
2023-06-29T20:31:59.379Z,27.25
2023-06-29T20:34:28.491Z,27.30
2023-06-29T20:36:57.362Z,27.34
2023-06-29T20:39:27.948Z,27.34
2023-06-29T20:41:56.746Z,27.37
2023-06-29T20:44:33.974Z,27.34
2023-06-29T20:47:05.429Z,27.28
2023-06-29T20:49:34.568Z,27.23
2023-06-29T20:52:03.924Z,27.12
2023-06-29T20:54:32.949Z,26.88
2023-06-29T20:57:03.720Z,26.70
2023-06-29T20:59:34.903Z,26.54
2023-06-29T21:02:06.343Z,26.46
2023-06-29T21:04:35.331Z,26.35
2023-06-29T21:07:04.314Z,26.26
2023-06-29T21:09:33.800Z,26.25
2023-06-29T21:12:03.014Z,26.19
2023-06-29T21:14:33.566Z,26.14
2023-06-29T21:17:02.704Z,26.05
2023-06-29T21:19:35.029Z,25.99
2023-06-29T21:22:04.615Z,25.89
2023-06-29T21:24:34.774Z,25.86
2023-06-29T21:27:04.043Z,25.79
2023-06-29T21:29:42.334Z,25.76
2023-06-29T21:32:13.439Z,25.65
2023-06-29T21:34:44.266Z,25.75
2023-06-29T21:37:14.854Z,25.73
2023-06-29T21:39:44.481Z,25.57
2023-06-29T21:42:13.423Z,25.45
2023-06-29T21:44:42.339Z,25.29
2023-06-29T21:47:11.419Z,25.10
2023-06-29T21:49:40.462Z,24.90
2023-06-29T21:52:10.946Z,24.73
2023-06-29T21:54:39.798Z,24.56
2023-06-29T21:57:09.143Z,24.48
2023-06-29T21:59:37.974Z,24.34
2023-06-29T22:02:07.723Z,24.22
2023-06-29T22:04:37.689Z,24.12
2023-06-29T22:07:16.832Z,24.07
2023-06-29T22:09:47.729Z,23.99
2023-06-29T22:12:16.616Z,23.92
2023-06-29T22:14:49.209Z,23.92
2023-06-29T22:17:18.367Z,23.98
2023-06-29T22:20:10.498Z,23.89
2023-06-29T22:22:39.419Z,23.80
2023-06-29T22:25:10.864Z,23.76
2023-06-29T22:27:40.033Z,23.73
2023-06-29T22:30:10.168Z,23.74
2023-06-29T22:32:39.769Z,23.78
2023-06-29T22:35:10.111Z,23.75
2023-06-29T22:37:39.857Z,23.72
2023-06-29T22:40:11.418Z,23.78
2023-06-29T22:42:40.380Z,23.78
2023-06-29T22:45:10.117Z,23.82
2023-06-29T22:47:39.081Z,23.79
2023-06-29T22:50:08.640Z,23.71
2023-06-29T22:52:37.941Z,23.64
2023-06-29T22:55:07.406Z,23.57
2023-06-29T22:57:37.802Z,23.47
2023-06-29T23:00:12.016Z,23.50
2023-06-29T23:02:45.467Z,23.54
2023-06-29T23:05:16.366Z,23.60
2023-06-29T23:07:45.954Z,23.58
2023-06-29T23:10:15.433Z,23.53
2023-06-29T23:12:46.975Z,23.45
2023-06-29T23:15:16.094Z,23.41
2023-06-29T23:17:45.694Z,23.23
2023-06-29T23:20:14.675Z,23.15
2023-06-29T23:22:45.354Z,23.06
2023-06-29T23:25:15.254Z,23.01
2023-06-29T23:27:45.565Z,22.90
2023-06-29T23:30:16.905Z,22.83
2023-06-29T23:32:51.280Z,22.89
2023-06-29T23:35:21.962Z,22.96
2023-06-29T23:37:51.472Z,22.98
2023-06-29T23:40:20.422Z,22.88
2023-06-29T23:42:52.269Z,22.83
2023-06-29T23:45:21.400Z,22.78
2023-06-29T23:47:50.362Z,22.79
2023-06-29T23:50:19.929Z,22.82
2023-06-29T23:52:49.505Z,22.83
2023-06-29T23:55:20.465Z,22.82
2023-06-29T23:57:51.317Z,22.78
